sensor_id;sensor_type;location;lat;lon;timestamp;temperature;humidity
12426;DHT22;6277;49.824;9.562;2023-12-20T00:02:16;8.90;80.10
12426;DHT22;6277;49.824;9.562;2023-12-20T00:04:42;8.90;80.10
12426;DHT22;6277;49.824;9.562;2023-12-20T00:07:07;8.90;80.10
12426;DHT22;6277;49.824;9.562;2023-12-20T00:09:33;8.90;80.10
12426;DHT22;6277;49.824;9.562;2023-12-20T00:11:58;8.90;80.00
12426;DHT22;6277;49.824;9.562;2023-12-20T00:14:24;8.90;80.00
12426;DHT22;6277;49.824;9.562;2023-12-20T00:16:49;8.80;79.90
12426;DHT22;6277;49.824;9.562;2023-12-20T00:19:15;8.80;80.00
12426;DHT22;6277;49.824;9.562;2023-12-20T00:21:40;8.80;79.90
12426;DHT22;6277;49.824;9.562;2023-12-20T00:24:06;8.80;80.00
12426;DHT22;6277;49.824;9.562;2023-12-20T00:26:31;8.80;80.00
12426;DHT22;6277;49.824;9.562;2023-12-20T00:28:57;8.70;79.90
12426;DHT22;6277;49.824;9.562;2023-12-20T00:31:22;8.70;79.90
12426;DHT22;6277;49.824;9.562;2023-12-20T00:33:48;8.60;79.90
12426;DHT22;6277;49.824;9.562;2023-12-20T00:36:13;8.60;79.90
12426;DHT22;6277;49.824;9.562;2023-12-20T00:38:39;8.60;79.90
12426;DHT22;6277;49.824;9.562;2023-12-20T00:41:04;8.50;79.80
12426;DHT22;6277;49.824;9.562;2023-12-20T00:43:30;8.50;79.80
12426;DHT22;6277;49.824;9.562;2023-12-20T00:45:55;8.50;79.80
12426;DHT22;6277;49.824;9.562;2023-12-20T00:48:21;8.50;79.90
12426;DHT22;6277;49.824;9.562;2023-12-20T00:50:47;8.40;79.70
12426;DHT22;6277;49.824;9.562;2023-12-20T00:53:12;8.40;80.50
12426;DHT22;6277;49.824;9.562;2023-12-20T00:55:38;8.30;79.80
12426;DHT22;6277;49.824;9.562;2023-12-20T00:58:03;8.30;79.90
12426;DHT22;6277;49.824;9.562;2023-12-20T01:00:29;8.30;79.90
12426;DHT22;6277;49.824;9.562;2023-12-20T01:02:54;8.30;79.90
12426;DHT22;6277;49.824;9.562;2023-12-20T01:05:20;8.20;79.90
12426;DHT22;6277;49.824;9.562;2023-12-20T01:07:48;8.20;79.90
12426;DHT22;6277;49.824;9.562;2023-12-20T01:10:14;8.10;80.00
12426;DHT22;6277;49.824;9.562;2023-12-20T01:12:40;8.10;80.00
12426;DHT22;6277;49.824;9.562;2023-12-20T01:15:06;8.10;80.10
12426;DHT22;6277;49.824;9.562;2023-12-20T01:17:31;8.10;80.10
12426;DHT22;6277;49.824;9.562;2023-12-20T01:19:57;8.10;80.20
12426;DHT22;6277;49.824;9.562;2023-12-20T01:22:23;8.00;80.20
12426;DHT22;6277;49.824;9.562;2023-12-20T01:24:49;8.10;80.30
12426;DHT22;6277;49.824;9.562;2023-12-20T01:27:14;8.00;80.20
12426;DHT22;6277;49.824;9.562;2023-12-20T01:29:40;8.00;80.30
12426;DHT22;6277;49.824;9.562;2023-12-20T01:32:06;8.00;80.30
12426;DHT22;6277;49.824;9.562;2023-12-20T01:34:31;8.00;80.30
12426;DHT22;6277;49.824;9.562;2023-12-20T01:36:57;8.00;80.30
12426;DHT22;6277;49.824;9.562;2023-12-20T01:39:23;8.00;80.40
12426;DHT22;6277;49.824;9.562;2023-12-20T01:41:48;8.00;80.40
12426;DHT22;6277;49.824;9.562;2023-12-20T01:44:14;7.90;80.40
12426;DHT22;6277;49.824;9.562;2023-12-20T01:46:39;8.00;80.50
12426;DHT22;6277;49.824;9.562;2023-12-20T01:49:05;8.00;80.60
12426;DHT22;6277;49.824;9.562;2023-12-20T01:51:31;8.00;80.60
12426;DHT22;6277;49.824;9.562;2023-12-20T01:53:57;8.00;80.60
12426;DHT22;6277;49.824;9.562;2023-12-20T01:56:24;8.00;80.50
12426;DHT22;6277;49.824;9.562;2023-12-20T01:58:50;8.00;80.50
12426;DHT22;6277;49.824;9.562;2023-12-20T02:01:16;8.00;80.50
12426;DHT22;6277;49.824;9.562;2023-12-20T02:03:42;7.90;80.50
12426;DHT22;6277;49.824;9.562;2023-12-20T02:06:08;8.00;80.60
12426;DHT22;6277;49.824;9.562;2023-12-20T02:08:34;7.90;80.50
12426;DHT22;6277;49.824;9.562;2023-12-20T02:11:00;7.90;80.60
12426;DHT22;6277;49.824;9.562;2023-12-20T02:13:26;7.90;80.60
12426;DHT22;6277;49.824;9.562;2023-12-20T02:15:52;7.90;80.60
12426;DHT22;6277;49.824;9.562;2023-12-20T02:18:18;7.90;80.70
12426;DHT22;6277;49.824;9.562;2023-12-20T02:20:43;7.80;80.60
12426;DHT22;6277;49.824;9.562;2023-12-20T02:23:09;7.80;80.70
12426;DHT22;6277;49.824;9.562;2023-12-20T02:25:34;7.80;80.80
12426;DHT22;6277;49.824;9.562;2023-12-20T02:28:01;7.80;80.80
12426;DHT22;6277;49.824;9.562;2023-12-20T02:30:28;7.80;80.90
12426;DHT22;6277;49.824;9.562;2023-12-20T02:32:53;7.80;80.90
12426;DHT22;6277;49.824;9.562;2023-12-20T02:35:19;7.70;81.00
12426;DHT22;6277;49.824;9.562;2023-12-20T02:37:44;7.70;81.00
12426;DHT22;6277;49.824;9.562;2023-12-20T02:40:10;7.80;81.20
12426;DHT22;6277;49.824;9.562;2023-12-20T02:42:36;7.70;81.10
12426;DHT22;6277;49.824;9.562;2023-12-20T02:45:01;7.70;81.10
12426;DHT22;6277;49.824;9.562;2023-12-20T02:47:27;7.70;81.10
12426;DHT22;6277;49.824;9.562;2023-12-20T02:49:54;7.70;81.10
12426;DHT22;6277;49.824;9.562;2023-12-20T02:52:20;7.70;81.20
12426;DHT22;6277;49.824;9.562;2023-12-20T02:54:45;7.70;81.20
12426;DHT22;6277;49.824;9.562;2023-12-20T02:57:11;7.70;81.20
12426;DHT22;6277;49.824;9.562;2023-12-20T02:59:36;7.60;81.20
12426;DHT22;6277;49.824;9.562;2023-12-20T03:02:02;7.60;81.30
12426;DHT22;6277;49.824;9.562;2023-12-20T03:04:28;7.60;81.40
12426;DHT22;6277;49.824;9.562;2023-12-20T03:06:53;7.60;81.40
12426;DHT22;6277;49.824;9.562;2023-12-20T03:09:19;7.60;81.50
12426;DHT22;6277;49.824;9.562;2023-12-20T03:11:44;7.60;81.50
12426;DHT22;6277;49.824;9.562;2023-12-20T03:14:10;7.60;81.60
12426;DHT22;6277;49.824;9.562;2023-12-20T03:16:35;7.60;81.70
12426;DHT22;6277;49.824;9.562;2023-12-20T03:19:01;7.60;81.70
12426;DHT22;6277;49.824;9.562;2023-12-20T03:21:26;7.50;81.70
12426;DHT22;6277;49.824;9.562;2023-12-20T03:23:52;7.60;81.70
12426;DHT22;6277;49.824;9.562;2023-12-20T03:26:17;7.60;81.70
12426;DHT22;6277;49.824;9.562;2023-12-20T03:28:43;7.60;81.70
12426;DHT22;6277;49.824;9.562;2023-12-20T03:31:09;7.60;81.80
12426;DHT22;6277;49.824;9.562;2023-12-20T03:33:35;7.60;81.90
12426;DHT22;6277;49.824;9.562;2023-12-20T03:36:00;7.60;81.90
12426;DHT22;6277;49.824;9.562;2023-12-20T03:38:26;7.60;81.90
12426;DHT22;6277;49.824;9.562;2023-12-20T03:40:52;7.60;81.90
12426;DHT22;6277;49.824;9.562;2023-12-20T03:43:17;7.60;81.90
12426;DHT22;6277;49.824;9.562;2023-12-20T03:45:43;7.60;81.90
12426;DHT22;6277;49.824;9.562;2023-12-20T03:48:08;7.60;82.00
12426;DHT22;6277;49.824;9.562;2023-12-20T03:50:34;7.60;82.00
12426;DHT22;6277;49.824;9.562;2023-12-20T03:53:00;7.60;82.10
12426;DHT22;6277;49.824;9.562;2023-12-20T03:55:25;7.60;82.10
12426;DHT22;6277;49.824;9.562;2023-12-20T03:57:51;7.60;82.10
12426;DHT22;6277;49.824;9.562;2023-12-20T04:00:17;7.60;82.10
12426;DHT22;6277;49.824;9.562;2023-12-20T04:02:42;7.60;82.20
12426;DHT22;6277;49.824;9.562;2023-12-20T04:05:09;7.70;82.40
12426;DHT22;6277;49.824;9.562;2023-12-20T04:07:35;7.70;82.40
12426;DHT22;6277;49.824;9.562;2023-12-20T04:10:01;7.70;82.40
12426;DHT22;6277;49.824;9.562;2023-12-20T04:12:30;7.70;82.40
12426;DHT22;6277;49.824;9.562;2023-12-20T04:14:56;7.80;82.50
12426;DHT22;6277;49.824;9.562;2023-12-20T04:17:22;7.80;82.50
12426;DHT22;6277;49.824;9.562;2023-12-20T04:19:48;7.80;82.40
12426;DHT22;6277;49.824;9.562;2023-12-20T04:22:14;7.80;82.40
12426;DHT22;6277;49.824;9.562;2023-12-20T04:24:40;7.80;82.40
12426;DHT22;6277;49.824;9.562;2023-12-20T04:27:07;7.90;82.50
12426;DHT22;6277;49.824;9.562;2023-12-20T04:29:33;7.90;82.40
12426;DHT22;6277;49.824;9.562;2023-12-20T04:31:59;7.90;82.30
12426;DHT22;6277;49.824;9.562;2023-12-20T04:34:24;7.90;82.30
12426;DHT22;6277;49.824;9.562;2023-12-20T04:36:50;7.90;82.30
12426;DHT22;6277;49.824;9.562;2023-12-20T04:39:15;7.90;82.30
12426;DHT22;6277;49.824;9.562;2023-12-20T04:41:41;7.90;82.30
12426;DHT22;6277;49.824;9.562;2023-12-20T04:44:06;7.90;82.40
12426;DHT22;6277;49.824;9.562;2023-12-20T04:46:32;7.90;82.30
12426;DHT22;6277;49.824;9.562;2023-12-20T04:48:58;7.90;82.30
12426;DHT22;6277;49.824;9.562;2023-12-20T04:51:23;7.90;82.40
12426;DHT22;6277;49.824;9.562;2023-12-20T04:53:49;7.90;82.40
12426;DHT22;6277;49.824;9.562;2023-12-20T04:56:14;7.90;82.50
12426;DHT22;6277;49.824;9.562;2023-12-20T04:58:40;7.90;82.50
12426;DHT22;6277;49.824;9.562;2023-12-20T05:01:06;7.90;82.60
12426;DHT22;6277;49.824;9.562;2023-12-20T05:03:32;7.90;82.70
12426;DHT22;6277;49.824;9.562;2023-12-20T05:05:58;7.90;82.70
12426;DHT22;6277;49.824;9.562;2023-12-20T05:08:23;7.90;82.70
12426;DHT22;6277;49.824;9.562;2023-12-20T05:10:49;8.00;82.80
12426;DHT22;6277;49.824;9.562;2023-12-20T05:13:15;8.00;82.80
12426;DHT22;6277;49.824;9.562;2023-12-20T05:15:40;8.00;82.80
12426;DHT22;6277;49.824;9.562;2023-12-20T05:18:06;8.00;82.80
12426;DHT22;6277;49.824;9.562;2023-12-20T05:20:31;8.00;82.90
12426;DHT22;6277;49.824;9.562;2023-12-20T05:22:57;8.00;82.90
12426;DHT22;6277;49.824;9.562;2023-12-20T05:25:22;8.10;83.00
12426;DHT22;6277;49.824;9.562;2023-12-20T05:27:48;8.10;83.00
12426;DHT22;6277;49.824;9.562;2023-12-20T05:30:14;8.10;83.00
12426;DHT22;6277;49.824;9.562;2023-12-20T05:32:39;8.20;83.10
12426;DHT22;6277;49.824;9.562;2023-12-20T05:35:05;8.20;83.10
12426;DHT22;6277;49.824;9.562;2023-12-20T05:37:31;8.20;83.10
12426;DHT22;6277;49.824;9.562;2023-12-20T05:39:57;8.20;83.10
12426;DHT22;6277;49.824;9.562;2023-12-20T05:42:22;8.20;83.10
12426;DHT22;6277;49.824;9.562;2023-12-20T05:44:47;8.30;83.10
12426;DHT22;6277;49.824;9.562;2023-12-20T05:47:13;8.30;83.10
12426;DHT22;6277;49.824;9.562;2023-12-20T05:49:38;8.30;83.10
12426;DHT22;6277;49.824;9.562;2023-12-20T05:52:04;8.30;83.10
12426;DHT22;6277;49.824;9.562;2023-12-20T05:54:30;8.30;83.10
12426;DHT22;6277;49.824;9.562;2023-12-20T05:56:55;8.30;83.20
12426;DHT22;6277;49.824;9.562;2023-12-20T05:59:21;8.40;83.30
12426;DHT22;6277;49.824;9.562;2023-12-20T06:01:46;8.40;83.30
12426;DHT22;6277;49.824;9.562;2023-12-20T06:04:12;8.40;83.20
12426;DHT22;6277;49.824;9.562;2023-12-20T06:06:41;8.40;83.10
12426;DHT22;6277;49.824;9.562;2023-12-20T06:09:07;8.40;83.20
12426;DHT22;6277;49.824;9.562;2023-12-20T06:11:33;8.50;83.20
12426;DHT22;6277;49.824;9.562;2023-12-20T06:13:58;8.50;83.20
12426;DHT22;6277;49.824;9.562;2023-12-20T06:16:24;8.50;83.10
12426;DHT22;6277;49.824;9.562;2023-12-20T06:18:49;8.50;83.10
12426;DHT22;6277;49.824;9.562;2023-12-20T06:21:15;8.50;83.10
12426;DHT22;6277;49.824;9.562;2023-12-20T06:23:41;8.50;83.20
12426;DHT22;6277;49.824;9.562;2023-12-20T06:26:06;8.50;83.10
12426;DHT22;6277;49.824;9.562;2023-12-20T06:28:32;8.50;83.10
12426;DHT22;6277;49.824;9.562;2023-12-20T06:30:57;8.60;83.10
12426;DHT22;6277;49.824;9.562;2023-12-20T06:33:23;8.60;83.10
12426;DHT22;6277;49.824;9.562;2023-12-20T06:35:49;8.60;83.00
12426;DHT22;6277;49.824;9.562;2023-12-20T06:38:15;8.60;82.90
12426;DHT22;6277;49.824;9.562;2023-12-20T06:40:41;8.60;82.80
12426;DHT22;6277;49.824;9.562;2023-12-20T06:43:08;8.50;82.70
12426;DHT22;6277;49.824;9.562;2023-12-20T06:45:33;8.50;82.60
12426;DHT22;6277;49.824;9.562;2023-12-20T06:47:59;8.50;82.60
12426;DHT22;6277;49.824;9.562;2023-12-20T06:50:24;8.50;82.50
12426;DHT22;6277;49.824;9.562;2023-12-20T06:52:50;8.50;82.50
12426;DHT22;6277;49.824;9.562;2023-12-20T06:55:15;8.40;82.30
12426;DHT22;6277;49.824;9.562;2023-12-20T06:57:42;8.40;82.30
12426;DHT22;6277;49.824;9.562;2023-12-20T07:00:08;8.30;82.20
12426;DHT22;6277;49.824;9.562;2023-12-20T07:02:36;8.30;82.20
12426;DHT22;6277;49.824;9.562;2023-12-20T07:05:01;8.30;82.10
12426;DHT22;6277;49.824;9.562;2023-12-20T07:07:27;8.30;81.90
12426;DHT22;6277;49.824;9.562;2023-12-20T07:09:52;8.20;81.60
12426;DHT22;6277;49.824;9.562;2023-12-20T07:12:18;8.20;81.40
12426;DHT22;6277;49.824;9.562;2023-12-20T07:14:46;8.10;81.30
12426;DHT22;6277;49.824;9.562;2023-12-20T07:17:12;8.10;81.20
12426;DHT22;6277;49.824;9.562;2023-12-20T07:19:39;8.00;81.10
12426;DHT22;6277;49.824;9.562;2023-12-20T07:22:06;7.90;81.10
12426;DHT22;6277;49.824;9.562;2023-12-20T07:24:31;7.80;81.10
12426;DHT22;6277;49.824;9.562;2023-12-20T07:26:57;7.70;81.10
12426;DHT22;6277;49.824;9.562;2023-12-20T07:29:23;7.70;81.10
12426;DHT22;6277;49.824;9.562;2023-12-20T07:31:48;7.60;81.20
12426;DHT22;6277;49.824;9.562;2023-12-20T07:34:14;7.50;81.20
12426;DHT22;6277;49.824;9.562;2023-12-20T07:36:39;7.50;81.20
12426;DHT22;6277;49.824;9.562;2023-12-20T07:39:05;7.50;81.30
12426;DHT22;6277;49.824;9.562;2023-12-20T07:41:30;7.40;81.30
12426;DHT22;6277;49.824;9.562;2023-12-20T07:43:56;7.40;81.30
12426;DHT22;6277;49.824;9.562;2023-12-20T07:46:22;7.30;81.20
12426;DHT22;6277;49.824;9.562;2023-12-20T07:48:48;7.30;81.30
12426;DHT22;6277;49.824;9.562;2023-12-20T07:51:14;7.30;81.40
12426;DHT22;6277;49.824;9.562;2023-12-20T07:53:39;7.20;81.40
12426;DHT22;6277;49.824;9.562;2023-12-20T07:56:18;7.20;81.50
12426;DHT22;6277;49.824;9.562;2023-12-20T07:58:44;7.20;81.60
12426;DHT22;6277;49.824;9.562;2023-12-20T08:01:11;7.10;81.60
12426;DHT22;6277;49.824;9.562;2023-12-20T08:03:37;7.10;81.70
12426;DHT22;6277;49.824;9.562;2023-12-20T08:06:03;7.10;81.80
12426;DHT22;6277;49.824;9.562;2023-12-20T08:08:28;7.10;81.80
12426;DHT22;6277;49.824;9.562;2023-12-20T08:10:54;7.10;82.00
12426;DHT22;6277;49.824;9.562;2023-12-20T08:13:20;7.10;82.10
12426;DHT22;6277;49.824;9.562;2023-12-20T08:15:50;7.20;82.20
12426;DHT22;6277;49.824;9.562;2023-12-20T08:18:15;7.20;82.30
12426;DHT22;6277;49.824;9.562;2023-12-20T08:20:41;7.20;82.40
12426;DHT22;6277;49.824;9.562;2023-12-20T08:23:06;7.30;82.50
12426;DHT22;6277;49.824;9.562;2023-12-20T08:25:32;7.40;82.60
12426;DHT22;6277;49.824;9.562;2023-12-20T08:27:57;7.40;82.70
12426;DHT22;6277;49.824;9.562;2023-12-20T08:30:23;7.50;82.80
12426;DHT22;6277;49.824;9.562;2023-12-20T08:32:49;7.60;82.80
12426;DHT22;6277;49.824;9.562;2023-12-20T08:35:14;7.70;82.90
12426;DHT22;6277;49.824;9.562;2023-12-20T08:37:40;7.70;82.90
12426;DHT22;6277;49.824;9.562;2023-12-20T08:40:06;7.80;83.50
12426;DHT22;6277;49.824;9.562;2023-12-20T08:42:31;7.90;82.80
12426;DHT22;6277;49.824;9.562;2023-12-20T08:44:58;8.00;82.80
12426;DHT22;6277;49.824;9.562;2023-12-20T08:47:26;8.00;82.70
12426;DHT22;6277;49.824;9.562;2023-12-20T08:49:52;8.10;82.50
12426;DHT22;6277;49.824;9.562;2023-12-20T08:52:22;8.10;82.40
12426;DHT22;6277;49.824;9.562;2023-12-20T08:54:49;8.20;82.20
12426;DHT22;6277;49.824;9.562;2023-12-20T08:57:18;8.20;82.00
12426;DHT22;6277;49.824;9.562;2023-12-20T08:59:43;8.20;81.90
12426;DHT22;6277;49.824;9.562;2023-12-20T09:02:09;8.20;81.60
12426;DHT22;6277;49.824;9.562;2023-12-20T09:04:35;8.20;81.60
12426;DHT22;6277;49.824;9.562;2023-12-20T09:07:00;8.20;81.60
12426;DHT22;6277;49.824;9.562;2023-12-20T09:09:26;8.20;81.60
12426;DHT22;6277;49.824;9.562;2023-12-20T09:11:52;8.20;81.80
12426;DHT22;6277;49.824;9.562;2023-12-20T09:14:17;8.30;82.00
12426;DHT22;6277;49.824;9.562;2023-12-20T09:16:43;8.30;82.10
12426;DHT22;6277;49.824;9.562;2023-12-20T09:19:08;8.40;82.10
12426;DHT22;6277;49.824;9.562;2023-12-20T09:21:34;8.50;82.10
12426;DHT22;6277;49.824;9.562;2023-12-20T09:24:00;8.50;82.00
12426;DHT22;6277;49.824;9.562;2023-12-20T09:26:25;8.50;81.90
12426;DHT22;6277;49.824;9.562;2023-12-20T09:28:51;8.60;82.00
12426;DHT22;6277;49.824;9.562;2023-12-20T09:31:16;8.60;81.80
12426;DHT22;6277;49.824;9.562;2023-12-20T09:33:42;8.70;81.80
12426;DHT22;6277;49.824;9.562;2023-12-20T09:36:07;8.70;81.50
12426;DHT22;6277;49.824;9.562;2023-12-20T09:38:33;8.80;81.60
12426;DHT22;6277;49.824;9.562;2023-12-20T09:40:58;8.80;81.60
12426;DHT22;6277;49.824;9.562;2023-12-20T09:43:24;8.80;81.60
12426;DHT22;6277;49.824;9.562;2023-12-20T09:45:53;8.90;81.60
12426;DHT22;6277;49.824;9.562;2023-12-20T09:48:19;8.90;81.50
12426;DHT22;6277;49.824;9.562;2023-12-20T09:50:45;8.90;81.30
12426;DHT22;6277;49.824;9.562;2023-12-20T09:53:15;8.90;81.20
12426;DHT22;6277;49.824;9.562;2023-12-20T09:55:41;8.90;81.10
12426;DHT22;6277;49.824;9.562;2023-12-20T09:58:07;9.00;81.30
12426;DHT22;6277;49.824;9.562;2023-12-20T10:00:34;9.00;81.30
12426;DHT22;6277;49.824;9.562;2023-12-20T10:03:00;9.00;81.20
12426;DHT22;6277;49.824;9.562;2023-12-20T10:05:28;9.10;81.10
12426;DHT22;6277;49.824;9.562;2023-12-20T10:07:54;9.10;81.00
12426;DHT22;6277;49.824;9.562;2023-12-20T10:10:20;9.10;80.90
12426;DHT22;6277;49.824;9.562;2023-12-20T10:13:05;9.10;80.70
12426;DHT22;6277;49.824;9.562;2023-12-20T10:15:33;9.10;80.40
12426;DHT22;6277;49.824;9.562;2023-12-20T10:17:58;9.20;80.80
12426;DHT22;6277;49.824;9.562;2023-12-20T10:20:25;9.20;80.60
12426;DHT22;6277;49.824;9.562;2023-12-20T10:22:52;9.20;80.80
12426;DHT22;6277;49.824;9.562;2023-12-20T10:25:20;9.20;80.60
12426;DHT22;6277;49.824;9.562;2023-12-20T10:27:45;9.20;80.60
12426;DHT22;6277;49.824;9.562;2023-12-20T10:30:11;9.30;80.60
12426;DHT22;6277;49.824;9.562;2023-12-20T10:32:37;9.30;80.50
12426;DHT22;6277;49.824;9.562;2023-12-20T10:35:04;9.30;80.70
12426;DHT22;6277;49.824;9.562;2023-12-20T10:37:29;9.30;80.40
12426;DHT22;6277;49.824;9.562;2023-12-20T10:39:55;9.40;80.60
12426;DHT22;6277;49.824;9.562;2023-12-20T10:42:30;9.40;80.40
12426;DHT22;6277;49.824;9.562;2023-12-20T10:44:58;9.40;80.10
12426;DHT22;6277;49.824;9.562;2023-12-20T10:47:25;9.40;80.20
12426;DHT22;6277;49.824;9.562;2023-12-20T10:49:52;9.40;80.10
12426;DHT22;6277;49.824;9.562;2023-12-20T10:52:19;9.50;80.20
12426;DHT22;6277;49.824;9.562;2023-12-20T10:54:48;9.50;80.20
12426;DHT22;6277;49.824;9.562;2023-12-20T10:57:13;9.50;79.70
12426;DHT22;6277;49.824;9.562;2023-12-20T10:59:43;9.50;79.90
12426;DHT22;6277;49.824;9.562;2023-12-20T11:02:11;9.50;79.90
12426;DHT22;6277;49.824;9.562;2023-12-20T11:07:21;9.50;79.20
12426;DHT22;6277;49.824;9.562;2023-12-20T11:09:57;9.50;79.10
12426;DHT22;6277;49.824;9.562;2023-12-20T11:12:41;9.50;79.20
12426;DHT22;6277;49.824;9.562;2023-12-20T11:15:10;9.50;79.10
12426;DHT22;6277;49.824;9.562;2023-12-20T11:17:35;9.50;79.20
12426;DHT22;6277;49.824;9.562;2023-12-20T11:20:05;9.50;79.70
12426;DHT22;6277;49.824;9.562;2023-12-20T11:22:32;9.50;79.00
12426;DHT22;6277;49.824;9.562;2023-12-20T11:25:06;9.50;79.20
12426;DHT22;6277;49.824;9.562;2023-12-20T11:27:34;9.60;79.30
12426;DHT22;6277;49.824;9.562;2023-12-20T11:29:59;9.60;79.20
12426;DHT22;6277;49.824;9.562;2023-12-20T11:32:28;9.60;79.00
12426;DHT22;6277;49.824;9.562;2023-12-20T11:37:40;9.60;77.80
12426;DHT22;6277;49.824;9.562;2023-12-20T11:40:11;9.60;78.20
12426;DHT22;6277;49.824;9.562;2023-12-20T11:42:41;9.60;78.10
12426;DHT22;6277;49.824;9.562;2023-12-20T11:45:10;9.60;78.10
12426;DHT22;6277;49.824;9.562;2023-12-20T11:47:36;9.60;78.10
12426;DHT22;6277;49.824;9.562;2023-12-20T11:50:01;9.70;78.20
12426;DHT22;6277;49.824;9.562;2023-12-20T11:52:29;9.70;78.30
12426;DHT22;6277;49.824;9.562;2023-12-20T11:54:55;9.70;78.20
12426;DHT22;6277;49.824;9.562;2023-12-20T11:57:21;9.70;78.20
12426;DHT22;6277;49.824;9.562;2023-12-20T11:59:46;9.70;77.90
12426;DHT22;6277;49.824;9.562;2023-12-20T12:02:12;9.80;78.00
12426;DHT22;6277;49.824;9.562;2023-12-20T12:04:41;9.70;77.90
12426;DHT22;6277;49.824;9.562;2023-12-20T12:07:07;9.70;78.00
12426;DHT22;6277;49.824;9.562;2023-12-20T12:09:32;9.80;78.00
12426;DHT22;6277;49.824;9.562;2023-12-20T12:11:58;9.80;77.90
12426;DHT22;6277;49.824;9.562;2023-12-20T12:14:24;9.80;77.70
12426;DHT22;6277;49.824;9.562;2023-12-20T12:16:50;9.80;77.50
12426;DHT22;6277;49.824;9.562;2023-12-20T12:19:23;9.80;77.70
12426;DHT22;6277;49.824;9.562;2023-12-20T12:21:49;9.80;77.20
12426;DHT22;6277;49.824;9.562;2023-12-20T12:24:16;9.90;77.20
12426;DHT22;6277;49.824;9.562;2023-12-20T12:26:53;9.80;76.90
12426;DHT22;6277;49.824;9.562;2023-12-20T12:29:18;9.90;76.50
12426;DHT22;6277;49.824;9.562;2023-12-20T12:31:44;9.90;76.20
12426;DHT22;6277;49.824;9.562;2023-12-20T12:34:09;9.80;76.20
12426;DHT22;6277;49.824;9.562;2023-12-20T12:36:35;9.80;76.30
12426;DHT22;6277;49.824;9.562;2023-12-20T12:39:03;9.80;76.60
12426;DHT22;6277;49.824;9.562;2023-12-20T12:41:30;9.90;76.20
12426;DHT22;6277;49.824;9.562;2023-12-20T12:43:56;9.90;76.30
12426;DHT22;6277;49.824;9.562;2023-12-20T12:46:21;9.90;76.00
12426;DHT22;6277;49.824;9.562;2023-12-20T12:48:47;9.90;75.60
12426;DHT22;6277;49.824;9.562;2023-12-20T12:51:12;9.80;75.70
12426;DHT22;6277;49.824;9.562;2023-12-20T12:53:39;9.80;75.60
12426;DHT22;6277;49.824;9.562;2023-12-20T12:56:05;9.80;74.80
12426;DHT22;6277;49.824;9.562;2023-12-20T12:58:31;9.70;74.80
12426;DHT22;6277;49.824;9.562;2023-12-20T13:00:57;9.70;75.00
12426;DHT22;6277;49.824;9.562;2023-12-20T13:03:22;9.60;75.30
12426;DHT22;6277;49.824;9.562;2023-12-20T13:05:48;9.60;75.30
12426;DHT22;6277;49.824;9.562;2023-12-20T13:08:14;9.60;75.50
12426;DHT22;6277;49.824;9.562;2023-12-20T13:10:40;9.60;75.40
12426;DHT22;6277;49.824;9.562;2023-12-20T13:13:05;9.60;75.50
12426;DHT22;6277;49.824;9.562;2023-12-20T13:15:31;9.60;76.20
12426;DHT22;6277;49.824;9.562;2023-12-20T13:17:57;9.60;75.20
12426;DHT22;6277;49.824;9.562;2023-12-20T13:20:22;9.60;75.20
12426;DHT22;6277;49.824;9.562;2023-12-20T13:22:48;9.60;75.10
12426;DHT22;6277;49.824;9.562;2023-12-20T13:25:14;9.60;75.50
12426;DHT22;6277;49.824;9.562;2023-12-20T13:27:39;9.60;74.70
12426;DHT22;6277;49.824;9.562;2023-12-20T13:30:06;9.60;74.70
12426;DHT22;6277;49.824;9.562;2023-12-20T13:32:32;9.50;74.70
12426;DHT22;6277;49.824;9.562;2023-12-20T13:34:58;9.50;74.70
12426;DHT22;6277;49.824;9.562;2023-12-20T13:37:23;9.50;74.80
12426;DHT22;6277;49.824;9.562;2023-12-20T13:39:49;9.50;74.80
12426;DHT22;6277;49.824;9.562;2023-12-20T13:42:14;9.40;74.70
12426;DHT22;6277;49.824;9.562;2023-12-20T13:44:40;9.40;74.90
12426;DHT22;6277;49.824;9.562;2023-12-20T13:47:05;9.30;74.80
12426;DHT22;6277;49.824;9.562;2023-12-20T13:49:31;9.40;75.30
12426;DHT22;6277;49.824;9.562;2023-12-20T13:51:57;9.30;75.00
12426;DHT22;6277;49.824;9.562;2023-12-20T13:54:24;9.30;75.10
12426;DHT22;6277;49.824;9.562;2023-12-20T13:56:49;9.30;75.10
12426;DHT22;6277;49.824;9.562;2023-12-20T13:59:15;9.30;75.20
12426;DHT22;6277;49.824;9.562;2023-12-20T14:01:40;9.30;75.20
12426;DHT22;6277;49.824;9.562;2023-12-20T14:04:06;9.30;74.90
12426;DHT22;6277;49.824;9.562;2023-12-20T14:06:32;9.30;75.20
12426;DHT22;6277;49.824;9.562;2023-12-20T14:08:58;9.30;75.20
12426;DHT22;6277;49.824;9.562;2023-12-20T14:11:26;9.30;75.00
12426;DHT22;6277;49.824;9.562;2023-12-20T14:13:51;9.40;75.20
12426;DHT22;6277;49.824;9.562;2023-12-20T14:16:17;9.40;75.40
12426;DHT22;6277;49.824;9.562;2023-12-20T14:18:42;9.40;75.40
12426;DHT22;6277;49.824;9.562;2023-12-20T14:21:08;9.50;75.30
12426;DHT22;6277;49.824;9.562;2023-12-20T14:23:33;9.50;75.10
12426;DHT22;6277;49.824;9.562;2023-12-20T14:25:59;9.50;75.10
12426;DHT22;6277;49.824;9.562;2023-12-20T14:28:25;9.50;75.10
12426;DHT22;6277;49.824;9.562;2023-12-20T14:30:51;9.50;75.10
12426;DHT22;6277;49.824;9.562;2023-12-20T14:33:16;9.50;74.90
12426;DHT22;6277;49.824;9.562;2023-12-20T14:35:42;9.50;74.90
12426;DHT22;6277;49.824;9.562;2023-12-20T14:38:09;9.50;74.80
12426;DHT22;6277;49.824;9.562;2023-12-20T14:40:35;9.50;75.00
12426;DHT22;6277;49.824;9.562;2023-12-20T14:43:01;9.50;74.90
12426;DHT22;6277;49.824;9.562;2023-12-20T14:45:29;9.50;74.90
12426;DHT22;6277;49.824;9.562;2023-12-20T14:47:55;9.40;74.90
12426;DHT22;6277;49.824;9.562;2023-12-20T14:50:20;9.40;74.90
12426;DHT22;6277;49.824;9.562;2023-12-20T14:52:47;9.40;74.90
12426;DHT22;6277;49.824;9.562;2023-12-20T14:55:12;9.40;74.90
12426;DHT22;6277;49.824;9.562;2023-12-20T14:57:38;9.30;74.80
12426;DHT22;6277;49.824;9.562;2023-12-20T15:00:05;9.30;74.90
12426;DHT22;6277;49.824;9.562;2023-12-20T15:02:31;9.30;74.80
12426;DHT22;6277;49.824;9.562;2023-12-20T15:04:57;9.30;74.90
12426;DHT22;6277;49.824;9.562;2023-12-20T15:07:22;9.30;75.00
12426;DHT22;6277;49.824;9.562;2023-12-20T15:09:48;9.30;75.00
12426;DHT22;6277;49.824;9.562;2023-12-20T15:12:14;9.20;75.50
12426;DHT22;6277;49.824;9.562;2023-12-20T15:14:40;9.20;74.90
12426;DHT22;6277;49.824;9.562;2023-12-20T15:17:06;9.20;75.00
12426;DHT22;6277;49.824;9.562;2023-12-20T15:19:31;9.20;74.90
12426;DHT22;6277;49.824;9.562;2023-12-20T15:21:57;9.20;75.00
12426;DHT22;6277;49.824;9.562;2023-12-20T15:24:24;9.20;74.90
12426;DHT22;6277;49.824;9.562;2023-12-20T15:26:54;9.20;74.80
12426;DHT22;6277;49.824;9.562;2023-12-20T15:29:21;9.20;74.20
12426;DHT22;6277;49.824;9.562;2023-12-20T15:31:47;9.20;74.70
12426;DHT22;6277;49.824;9.562;2023-12-20T15:34:13;9.20;74.80
12426;DHT22;6277;49.824;9.562;2023-12-20T15:36:39;9.20;74.80
12426;DHT22;6277;49.824;9.562;2023-12-20T15:39:05;9.20;74.80
12426;DHT22;6277;49.824;9.562;2023-12-20T15:41:31;9.10;74.90
12426;DHT22;6277;49.824;9.562;2023-12-20T15:43:56;9.10;74.80
12426;DHT22;6277;49.824;9.562;2023-12-20T15:46:22;9.10;74.90
12426;DHT22;6277;49.824;9.562;2023-12-20T15:48:47;9.10;74.80
12426;DHT22;6277;49.824;9.562;2023-12-20T15:51:14;9.10;74.70
12426;DHT22;6277;49.824;9.562;2023-12-20T15:53:40;9.10;74.70
12426;DHT22;6277;49.824;9.562;2023-12-20T15:56:05;9.10;74.70
12426;DHT22;6277;49.824;9.562;2023-12-20T15:58:31;9.10;74.70
12426;DHT22;6277;49.824;9.562;2023-12-20T16:00:57;9.10;74.90